You are not logged in, Click here to log in
蘇黎世機場ZRH / LSZH 瑞士蘇黎世州
ICAO: LSZH Country: 瑞士蘇黎世州
Latitude: 47.4582 Longitude: 8.55548
Total Arrivals: 17 Total Departures: 18
Latest Arrival: BA612712 (EGLL-LSZH)Lun. Wang Latest Departure: AF1415 (LSZH-LFPG)Arthur. Kung
Scenery:
METAR : LSZH 121950Z 05007KT CAVOK 20/07 Q1023 NOSIG

蘇黎世機場ZRH

You are accessing this site from IP address 35.168.112.145. Virtual Airline. CMS by phpVMS.Website designed by Zumeweb and edited by Theo Bearman.
There is 0 User(s) Online: | and 14 Guest(s) Online.
All information on this site is for fight simulation purposes only. This site is for flight logging for pilots of Virtual Airline&模擬飛行論壇 FlySim only.